Time;durP1;ratioP1;P1;durP2;ratioP2;P2;SDS_P1;SDS_P2;PMS_P1;PMS_P2;Temp;Humidity;BMP_temperature;BMP_pressure;BME280_temperature;BME280_humidity;BME280_pressure;Samples;Min_cycle;Max_cycle;Signal;HPM_P1;HPM_P2
2021/09/29 00:00:24;;;;;;;18.90;11.67;;;;;;;;;;5097007;28;20449;-74
2021/09/29 00:02:51;;;;;;;14.53;11.30;;;;;;;;;;5097241;28;20485;-74
2021/09/29 00:05:18;;;;;;;14.20;10.57;;;;;;;;;;5096641;28;20447;-74
2021/09/29 00:07:46;;;;;;;14.47;11.13;;;;;;;;;;5096921;28;20795;-74
2021/09/29 00:10:14;;;;;;;15.77;11.37;;;;;;;;;;5096817;28;20526;-74
2021/09/29 00:12:42;;;;;;;10.40;9.37;;;;;;;;;;5096470;28;20955;-74
2021/09/29 00:15:13;;;;;;;16.30;8.83;;;;;;;;;;5096756;28;20798;-73
2021/09/29 00:17:40;;;;;;;17.80;9.37;;;;;;;;;;5096817;28;20486;-74
2021/09/29 00:20:08;;;;;;;11.50;8.90;;;;;;;;;;5096371;28;20526;-74
2021/09/29 00:22:36;;;;;;;12.47;9.60;;;;;;;;;;5096203;28;20481;-74
2021/09/29 00:25:04;;;;;;;12.73;10.87;;;;;;;;;;5096556;28;20446;-73
2021/09/29 00:27:32;;;;;;;16.27;9.90;;;;;;;;;;5096842;28;20443;-73
2021/09/29 00:30:04;;;;;;;10.47;9.23;;;;;;;;;;5096479;28;20483;-74
2021/09/29 00:32:33;;;;;;;11.63;10.00;;;;;;;;;;5096114;28;20932;-74
2021/09/29 00:35:00;;;;;;;17.93;8.80;;;;;;;;;;5095920;28;20447;-73
2021/09/29 00:37:27;;;;;;;13.10;8.90;;;;;;;;;;5095955;28;20477;-73
2021/09/29 00:39:55;;;;;;;12.20;9.07;;;;;;;;;;5096238;28;20787;-73
2021/09/29 00:42:22;;;;;;;14.17;10.33;;;;;;;;;;5096000;28;20824;-73
2021/09/29 00:44:50;;;;;;;20.00;9.50;;;;;;;;;;5095869;28;20440;-74
2021/09/29 00:47:18;;;;;;;17.50;9.73;;;;;;;;;;5095803;28;20501;-74
2021/09/29 00:49:45;;;;;;;12.27;9.60;;;;;;;;;;5096247;28;20780;-74
2021/09/29 00:52:12;;;;;;;14.20;9.70;;;;;;;;;;5096012;28;20443;-73
2021/09/29 00:54:40;;;;;;;21.07;9.70;;;;;;;;;;5096190;28;20446;-73
2021/09/29 00:57:08;;;;;;;13.80;9.77;;;;;;;;;;5095747;28;20475;-74
2021/09/29 00:59:35;;;;;;;14.10;9.80;;;;;;;;;;5096266;28;20538;-74
2021/09/29 01:02:05;;;;;;;11.30;9.60;;;;;;;;;;5095400;28;20540;-74
2021/09/29 01:04:33;;;;;;;12.30;9.80;;;;;;;;;;5094654;28;20861;-73
2021/09/29 01:07:04;;;;;;;10.03;9.10;;;;;;;;;;5095900;28;20448;-74
2021/09/29 01:09:32;;;;;;;13.63;9.97;;;;;;;;;;5096172;28;20431;-74
2021/09/29 01:12:02;;;;;;;16.00;10.27;;;;;;;;;;5096660;28;20455;-75
2021/09/29 01:14:33;;;;;;;12.53;9.10;;;;;;;;;;5099235;28;20921;-74
2021/09/29 01:17:02;;;;;;;16.63;9.37;;;;;;;;;;5097206;28;20434;-74
2021/09/29 01:19:37;;;;;;;13.43;9.93;;;;;;;;;;5095500;28;20445;-76
2021/09/29 01:22:11;;;;;;;15.70;9.37;;;;;;;;;;5095741;28;20463;-76
2021/09/29 01:24:40;;;;;;;12.57;8.90;;;;;;;;;;5095246;28;20905;-76
2021/09/29 01:27:09;;;;;;;14.70;9.30;;;;;;;;;;5095702;28;20533;-76
2021/09/29 01:29:37;;;;;;;12.70;8.40;;;;;;;;;;5095372;28;20486;-76
2021/09/29 01:32:05;;;;;;;12.50;8.80;;;;;;;;;;5095265;28;20439;-76
2021/09/29 01:34:33;;;;;;;9.33;8.40;;;;;;;;;;5095484;28;20586;-76
2021/09/29 01:37:04;;;;;;;15.43;9.43;;;;;;;;;;5094861;28;20446;-76
2021/09/29 01:39:32;;;;;;;10.13;9.10;;;;;;;;;;5095434;28;20497;-76
2021/09/29 01:41:59;;;;;;;14.40;9.50;;;;;;;;;;5094623;28;20984;-76
2021/09/29 01:44:27;;;;;;;21.57;10.90;;;;;;;;;;5095032;28;20469;-76
2021/09/29 01:46:54;;;;;;;12.80;8.40;;;;;;;;;;5094476;28;20442;-76
2021/09/29 01:49:26;;;;;;;17.20;10.13;;;;;;;;;;5095404;28;20450;-76
2021/09/29 01:51:54;;;;;;;18.17;8.90;;;;;;;;;;5094601;28;20446;-76
2021/09/29 01:54:22;;;;;;;10.20;8.83;;;;;;;;;;5094853;28;20436;-75
2021/09/29 01:56:50;;;;;;;11.27;8.27;;;;;;;;;;5095018;28;20523;-74
2021/09/29 01:59:17;;;;;;;10.03;8.10;;;;;;;;;;5094579;28;20447;-74
2021/09/29 02:01:45;;;;;;;15.10;9.30;;;;;;;;;;5094599;28;20448;-75
2021/09/29 02:04:13;;;;;;;11.93;8.30;;;;;;;;;;5094771;28;20454;-74
2021/09/29 02:06:48;;;;;;;11.13;9.17;;;;;;;;;;5094997;28;20470;-74
2021/09/29 02:09:15;;;;;;;13.30;7.77;;;;;;;;;;5094839;28;20446;-75
2021/09/29 02:11:42;;;;;;;23.70;9.60;;;;;;;;;;5094557;28;20443;-74
2021/09/29 02:14:10;;;;;;;13.03;8.53;;;;;;;;;;5094103;28;20435;-74
2021/09/29 02:16:37;;;;;;;13.13;8.00;;;;;;;;;;5094066;28;20439;-75
2021/09/29 02:19:05;;;;;;;9.07;7.70;;;;;;;;;;5094049;28;20941;-74
2021/09/29 02:21:33;;;;;;;9.50;7.60;;;;;;;;;;5094197;28;20446;-74
2021/09/29 02:24:00;;;;;;;10.37;8.10;;;;;;;;;;5094652;28;20435;-74
2021/09/29 02:26:27;;;;;;;13.20;7.93;;;;;;;;;;5094180;28;21023;-74
2021/09/29 02:28:54;;;;;;;11.57;8.53;;;;;;;;;;5094275;28;20467;-74
2021/09/29 02:31:21;;;;;;;12.20;7.93;;;;;;;;;;5094251;28;20440;-74
2021/09/29 02:33:49;;;;;;;13.30;8.00;;;;;;;;;;5094146;28;20439;-74
2021/09/29 02:36:17;;;;;;;13.87;8.50;;;;;;;;;;5093986;28;20442;-75
2021/09/29 02:38:45;;;;;;;9.00;7.80;;;;;;;;;;5093567;28;20444;-74
2021/09/29 02:41:12;;;;;;;8.53;7.63;;;;;;;;;;5093589;28;20925;-74
2021/09/29 02:43:40;;;;;;;9.40;7.67;;;;;;;;;;5093675;28;20482;-74
2021/09/29 02:46:07;;;;;;;10.60;6.43;;;;;;;;;;5094080;28;20431;-74
2021/09/29 02:48:34;;;;;;;10.73;7.20;;;;;;;;;;5093830;28;20546;-74
2021/09/29 02:51:02;;;;;;;10.53;6.70;;;;;;;;;;5093682;28;20443;-74
2021/09/29 02:53:30;;;;;;;12.53;7.50;;;;;;;;;;5093701;28;20439;-75
2021/09/29 02:55:57;;;;;;;9.10;6.10;;;;;;;;;;5093606;28;20439;-74
2021/09/29 02:58:25;;;;;;;8.27;5.60;;;;;;;;;;5093688;28;20444;-74
2021/09/29 03:00:52;;;;;;;13.20;6.70;;;;;;;;;;5093735;28;20440;-75
2021/09/29 03:03:20;;;;;;;8.47;5.90;;;;;;;;;;5093631;28;20472;-74
2021/09/29 03:05:47;;;;;;;12.53;6.20;;;;;;;;;;5093530;28;20440;-75
2021/09/29 03:08:15;;;;;;;15.40;6.43;;;;;;;;;;5093578;28;20459;-74
2021/09/29 03:10:43;;;;;;;10.37;6.30;;;;;;;;;;5093580;28;20437;-75
2021/09/29 03:13:11;;;;;;;7.87;6.57;;;;;;;;;;5093146;28;20459;-74
2021/09/29 03:15:38;;;;;;;7.70;6.70;;;;;;;;;;5093279;28;20439;-77
2021/09/29 03:18:06;;;;;;;8.23;6.73;;;;;;;;;;5093432;28;20804;-76
2021/09/29 03:20:33;;;;;;;15.67;7.00;;;;;;;;;;5093103;28;20445;-76
2021/09/29 03:23:01;;;;;;;7.07;6.37;;;;;;;;;;5093036;28;20467;-74
2021/09/29 03:25:28;;;;;;;10.00;7.60;;;;;;;;;;5093062;28;20943;-77
2021/09/29 03:27:57;;;;;;;9.80;6.30;;;;;;;;;;5093593;28;20447;-77
2021/09/29 03:30:24;;;;;;;9.17;6.60;;;;;;;;;;5097129;28;20482;-77
2021/09/29 03:32:51;;;;;;;10.20;6.43;;;;;;;;;;5097397;28;20803;-77
2021/09/29 03:35:19;;;;;;;14.20;7.20;;;;;;;;;;5098153;28;20439;-77
2021/09/29 03:37:46;;;;;;;12.30;5.77;;;;;;;;;;5097411;28;20450;-77
2021/09/29 03:40:15;;;;;;;6.80;6.20;;;;;;;;;;5097046;28;20435;-77
2021/09/29 03:42:42;;;;;;;10.30;6.83;;;;;;;;;;5097267;28;20582;-77
2021/09/29 03:45:12;;;;;;;11.63;6.40;;;;;;;;;;5097588;28;20439;-77
2021/09/29 03:47:40;;;;;;;7.43;6.50;;;;;;;;;;5096947;28;20447;-76
2021/09/29 03:50:08;;;;;;;12.77;7.17;;;;;;;;;;5097522;28;20542;-76
2021/09/29 03:52:35;;;;;;;10.07;6.13;;;;;;;;;;5096918;28;20444;-76
2021/09/29 03:55:02;;;;;;;7.13;6.37;;;;;;;;;;5097869;28;20770;-76
2021/09/29 03:57:30;;;;;;;11.33;6.73;;;;;;;;;;5096858;28;20439;-76
2021/09/29 03:59:57;;;;;;;8.13;6.00;;;;;;;;;;5096672;28;20876;-75
2021/09/29 04:02:25;;;;;;;16.57;6.87;;;;;;;;;;5096997;28;20534;-76
2021/09/29 04:04:59;;;;;;;7.43;5.50;;;;;;;;;;5096689;28;20925;-76
2021/09/29 04:07:26;;;;;;;18.20;7.00;;;;;;;;;;5097467;28;20420;-76
2021/09/29 04:09:53;;;;;;;13.27;6.27;;;;;;;;;;5097113;28;20431;-76
2021/09/29 04:12:21;;;;;;;10.47;5.93;;;;;;;;;;5096794;28;20461;-76
2021/09/29 04:14:48;;;;;;;10.27;6.80;;;;;;;;;;5097019;28;20442;-76
2021/09/29 04:17:16;;;;;;;10.63;6.53;;;;;;;;;;5097088;28;20439;-74
2021/09/29 04:19:44;;;;;;;8.37;5.90;;;;;;;;;;5097397;28;20443;-74
2021/09/29 04:22:11;;;;;;;6.90;6.20;;;;;;;;;;5096293;28;20446;-74
2021/09/29 04:24:39;;;;;;;7.27;5.93;;;;;;;;;;5096234;28;20442;-74
2021/09/29 04:27:07;;;;;;;14.27;5.90;;;;;;;;;;5096690;28;20773;-74
2021/09/29 04:29:34;;;;;;;11.37;6.70;;;;;;;;;;5095899;28;20471;-71
2021/09/29 04:32:01;;;;;;;9.73;6.90;;;;;;;;;;5095138;28;20441;-74
2021/09/29 04:34:28;;;;;;;11.00;6.80;;;;;;;;;;5096084;28;20951;-74
2021/09/29 04:36:57;;;;;;;8.00;6.10;;;;;;;;;;5096488;28;20522;-74
2021/09/29 04:39:24;;;;;;;10.90;6.10;;;;;;;;;;5095985;28;20450;-74
2021/09/29 04:41:51;;;;;;;11.20;7.00;;;;;;;;;;5096196;28;20801;-74
2021/09/29 04:44:18;;;;;;;9.73;7.80;;;;;;;;;;5096198;28;20475;-74
2021/09/29 04:46:46;;;;;;;9.40;6.53;;;;;;;;;;5096041;28;20438;-74
2021/09/29 04:49:13;;;;;;;10.80;6.90;;;;;;;;;;5095991;28;20446;-75
2021/09/29 04:51:40;;;;;;;12.43;7.13;;;;;;;;;;5095987;28;20818;-75
2021/09/29 04:54:08;;;;;;;10.83;6.47;;;;;;;;;;5095988;28;20804;-74
2021/09/29 04:56:36;;;;;;;13.33;6.70;;;;;;;;;;5095851;28;20436;-74
2021/09/29 04:59:03;;;;;;;9.73;6.97;;;;;;;;;;5095997;28;20452;-74
2021/09/29 05:01:30;;;;;;;19.90;7.37;;;;;;;;;;5078930;28;20930;-74
2021/09/29 05:03:58;;;;;;;11.17;6.03;;;;;;;;;;5075096;28;21017;-74
2021/09/29 05:06:25;;;;;;;10.37;6.73;;;;;;;;;;5075784;28;20445;-74
2021/09/29 05:08:52;;;;;;;9.07;6.20;;;;;;;;;;5075099;28;20455;-74
2021/09/29 05:11:25;;;;;;;11.63;6.87;;;;;;;;;;5075033;28;20967;-74
2021/09/29 05:13:52;;;;;;;11.93;5.67;;;;;;;;;;5075426;28;20516;-74
2021/09/29 05:16:19;;;;;;;11.27;5.90;;;;;;;;;;5075045;28;20440;-74
2021/09/29 05:18:47;;;;;;;11.80;6.60;;;;;;;;;;5074369;28;20539;-72
2021/09/29 05:21:15;;;;;;;12.60;6.10;;;;;;;;;;5074903;28;20436;-74
2021/09/29 05:23:42;;;;;;;19.70;7.00;;;;;;;;;;5074289;28;20472;-73
2021/09/29 05:26:09;;;;;;;12.70;6.47;;;;;;;;;;5074445;28;20440;-73
2021/09/29 05:28:41;;;;;;;12.87;6.00;;;;;;;;;;5074087;28;20472;-74
2021/09/29 05:31:08;;;;;;;15.53;6.57;;;;;;;;;;5075191;28;20458;-73
2021/09/29 05:33:36;;;;;;;17.00;5.83;;;;;;;;;;5074395;28;20450;-75
2021/09/29 05:36:03;;;;;;;10.80;6.40;;;;;;;;;;5074832;28;20453;-75
2021/09/29 05:38:31;;;;;;;14.03;7.80;;;;;;;;;;5074335;28;20527;-75
2021/09/29 05:41:01;;;;;;;17.83;6.60;;;;;;;;;;5074866;28;20463;-75
2021/09/29 05:43:29;;;;;;;7.17;6.13;;;;;;;;;;5072241;28;20471;-74
2021/09/29 05:45:58;;;;;;;10.43;7.00;;;;;;;;;;5073552;28;20531;-70
2021/09/29 05:48:25;;;;;;;7.70;6.20;;;;;;;;;;5074053;28;20793;-75
2021/09/29 05:50:52;;;;;;;16.70;7.80;;;;;;;;;;5073449;28;20523;-70
2021/09/29 05:53:20;;;;;;;11.80;6.87;;;;;;;;;;5074507;28;20827;-71
2021/09/29 05:55:47;;;;;;;7.93;6.23;;;;;;;;;;5074248;28;20472;-70
2021/09/29 05:58:14;;;;;;;9.37;6.40;;;;;;;;;;5073968;28;20459;-70
2021/09/29 06:00:41;;;;;;;13.17;7.20;;;;;;;;;;5074389;28;20511;-71
2021/09/29 06:03:10;;;;;;;12.00;7.00;;;;;;;;;;5073984;28;20472;-71
2021/09/29 06:05:37;;;;;;;9.47;6.70;;;;;;;;;;5074233;28;20436;-70
2021/09/29 06:08:05;;;;;;;9.00;7.27;;;;;;;;;;5074020;28;20535;-71
2021/09/29 06:10:32;;;;;;;14.27;7.60;;;;;;;;;;5074358;28;20433;-71
2021/09/29 06:12:59;;;;;;;11.10;6.97;;;;;;;;;;5074396;28;20447;-71
2021/09/29 06:15:28;;;;;;;14.60;7.73;;;;;;;;;;5074069;28;20454;-71
2021/09/29 06:17:58;;;;;;;10.73;7.63;;;;;;;;;;5074704;28;20474;-71
2021/09/29 06:20:28;;;;;;;11.77;6.70;;;;;;;;;;5073533;28;20448;-71
2021/09/29 06:22:55;;;;;;;12.07;7.30;;;;;;;;;;5073946;28;20955;-71
2021/09/29 06:25:22;;;;;;;10.30;7.20;;;;;;;;;;5074035;28;20534;-71
2021/09/29 06:27:50;;;;;;;13.30;7.67;;;;;;;;;;5074404;28;20432;-71
2021/09/29 06:30:17;;;;;;;17.33;7.37;;;;;;;;;;5073792;28;20862;-72
2021/09/29 06:32:45;;;;;;;11.73;7.20;;;;;;;;;;5073657;28;20997;-72
2021/09/29 06:35:12;;;;;;;14.13;7.07;;;;;;;;;;5074403;28;20772;-71
2021/09/29 06:37:42;;;;;;;11.97;8.00;;;;;;;;;;5074201;28;20535;-71
2021/09/29 06:40:10;;;;;;;10.53;7.30;;;;;;;;;;5074199;28;20957;-71
2021/09/29 06:42:37;;;;;;;8.83;6.13;;;;;;;;;;5073744;28;20451;-71
2021/09/29 06:45:05;;;;;;;16.20;8.50;;;;;;;;;;5073651;28;20492;-71
2021/09/29 06:47:32;;;;;;;11.63;6.97;;;;;;;;;;5073981;28;20443;-71
2021/09/29 06:50:00;;;;;;;19.50;8.77;;;;;;;;;;5073953;28;20448;-71
2021/09/29 06:52:27;;;;;;;13.73;7.57;;;;;;;;;;5073623;28;20444;-72
2021/09/29 06:54:55;;;;;;;15.70;7.40;;;;;;;;;;5073549;28;20452;-72
2021/09/29 06:57:22;;;;;;;18.33;7.93;;;;;;;;;;5073880;28;20531;-71
2021/09/29 06:59:50;;;;;;;9.93;6.07;;;;;;;;;;5074106;28;20441;-71
2021/09/29 07:02:17;;;;;;;7.17;5.60;;;;;;;;;;5072734;28;20535;-71
2021/09/29 07:04:44;;;;;;;18.13;6.27;;;;;;;;;;5072874;28;20996;-71
2021/09/29 07:07:11;;;;;;;9.87;6.07;;;;;;;;;;5073143;28;20460;-71
2021/09/29 07:09:38;;;;;;;9.77;5.70;;;;;;;;;;5073180;28;20498;-71
2021/09/29 07:12:08;;;;;;;5.90;4.80;;;;;;;;;;5073162;28;20952;-71
2021/09/29 07:14:36;;;;;;;9.20;5.90;;;;;;;;;;5073044;28;21022;-71
2021/09/29 07:17:03;;;;;;;5.03;4.53;;;;;;;;;;5073108;28;20529;-71
2021/09/29 07:19:30;;;;;;;9.83;6.60;;;;;;;;;;5073104;28;20569;-72
2021/09/29 07:21:58;;;;;;;6.27;5.53;;;;;;;;;;5073386;28;20540;-71
2021/09/29 07:24:25;;;;;;;6.87;4.40;;;;;;;;;;5073381;28;20512;-71
2021/09/29 07:26:52;;;;;;;9.37;4.70;;;;;;;;;;5072933;28;20452;-71
2021/09/29 07:29:21;;;;;;;9.37;4.20;;;;;;;;;;5073091;28;20477;-71
2021/09/29 07:31:48;;;;;;;6.43;4.53;;;;;;;;;;5073885;28;20481;-71
2021/09/29 07:34:15;;;;;;;7.20;4.53;;;;;;;;;;5072854;28;20484;-71
2021/09/29 07:36:42;;;;;;;7.53;4.60;;;;;;;;;;5073470;28;20443;-72
2021/09/29 07:39:09;;;;;;;6.63;4.43;;;;;;;;;;5072870;28;20481;-72
2021/09/29 07:41:37;;;;;;;6.20;3.93;;;;;;;;;;5072814;28;20447;-72
2021/09/29 07:44:06;;;;;;;6.13;4.47;;;;;;;;;;5072649;28;20482;-72
2021/09/29 07:46:35;;;;;;;6.67;3.70;;;;;;;;;;5072988;28;20541;-72
2021/09/29 07:49:02;;;;;;;5.50;4.10;;;;;;;;;;5073058;28;20442;-72
2021/09/29 07:51:29;;;;;;;7.70;4.80;;;;;;;;;;5073022;28;20444;-71
2021/09/29 07:53:56;;;;;;;10.90;4.50;;;;;;;;;;5072993;28;20444;-72
2021/09/29 07:56:24;;;;;;;8.97;4.50;;;;;;;;;;5073455;28;20445;-71
2021/09/29 07:58:51;;;;;;;6.67;4.20;;;;;;;;;;5072986;28;20503;-72
2021/09/29 08:01:18;;;;;;;6.87;4.63;;;;;;;;;;5072961;28;20439;-71
2021/09/29 08:03:47;;;;;;;7.43;4.60;;;;;;;;;;5072768;28;21009;-71
2021/09/29 08:06:14;;;;;;;7.57;4.80;;;;;;;;;;5073309;28;20472;-71
2021/09/29 08:08:42;;;;;;;5.43;4.03;;;;;;;;;;5072573;28;20477;-71
2021/09/29 08:11:09;;;;;;;6.63;4.00;;;;;;;;;;5072464;28;20930;-71
2021/09/29 08:13:36;;;;;;;9.50;4.80;;;;;;;;;;5072725;28;20529;-71
2021/09/29 08:16:03;;;;;;;12.50;4.60;;;;;;;;;;5076361;28;20544;-71
2021/09/29 08:18:31;;;;;;;6.03;4.70;;;;;;;;;;5075992;28;20441;-71
2021/09/29 08:21:02;;;;;;;6.03;4.50;;;;;;;;;;5076277;28;20536;-71
2021/09/29 08:23:32;;;;;;;7.70;4.73;;;;;;;;;;5076567;28;20796;-71
2021/09/29 08:29:03;;;;;;;6.20;3.90;;;;;;;;;;5076126;28;20461;-71
2021/09/29 08:31:34;;;;;;;9.37;4.83;;;;;;;;;;5076256;28;20437;-70
2021/09/29 08:34:17;;;;;;;7.37;4.37;;;;;;;;;;5076321;28;20438;-71
2021/09/29 08:36:52;;;;;;;6.50;4.13;;;;;;;;;;5076019;28;20444;-71
2021/09/29 08:39:26;;;;;;;5.53;4.63;;;;;;;;;;5076310;28;20906;-71
2021/09/29 08:42:10;;;;;;;7.40;4.30;;;;;;;;;;5075478;28;20936;-71
2021/09/29 08:44:44;;;;;;;7.03;4.07;;;;;;;;;;5075451;28;20552;-71
2021/09/29 08:47:16;;;;;;;5.50;4.10;;;;;;;;;;5076100;28;20479;-70
2021/09/29 08:49:53;;;;;;;8.27;4.57;;;;;;;;;;5075805;28;20914;-71
2021/09/29 08:52:34;;;;;;;7.20;4.33;;;;;;;;;;5075618;28;20989;-71
2021/09/29 09:14:53;;;;;;;5.90;3.60;;;;;;;;;;5075722;28;20807;-71
2021/09/29 09:17:27;;;;;;;7.17;4.27;;;;;;;;;;5075122;28;20496;-71
2021/09/29 09:19:54;;;;;;;18.47;4.10;;;;;;;;;;5075809;28;20852;-71
2021/09/29 09:22:32;;;;;;;18.13;5.03;;;;;;;;;;5074962;28;20444;-72
2021/09/29 09:25:00;;;;;;;9.40;3.97;;;;;;;;;;5074699;28;20560;-71
2021/09/29 09:27:38;;;;;;;7.20;4.30;;;;;;;;;;5074899;28;20448;-71
2021/09/29 09:30:05;;;;;;;11.80;2.90;;;;;;;;;;5074760;28;21002;-71
2021/09/29 09:32:41;;;;;;;9.40;3.53;;;;;;;;;;5075066;28;20444;-71
2021/09/29 09:35:09;;;;;;;5.80;3.43;;;;;;;;;;5075340;28;20429;-71
2021/09/29 09:37:39;;;;;;;8.40;3.60;;;;;;;;;;5074976;28;20443;-72
2021/09/29 09:40:08;;;;;;;5.00;3.70;;;;;;;;;;5074937;28;20443;-71
2021/09/29 09:42:40;;;;;;;6.83;3.13;;;;;;;;;;5074628;28;20443;-72
2021/09/29 09:45:08;;;;;;;10.80;3.37;;;;;;;;;;5075245;28;20463;-71
2021/09/29 09:47:39;;;;;;;4.03;3.13;;;;;;;;;;5074916;28;20516;-71
2021/09/29 09:50:06;;;;;;;7.13;3.40;;;;;;;;;;5075286;28;20423;-72
2021/09/29 09:52:36;;;;;;;4.50;2.80;;;;;;;;;;5074573;28;20445;-71
2021/09/29 09:55:04;;;;;;;4.43;3.50;;;;;;;;;;5074400;28;20453;-71
2021/09/29 09:57:34;;;;;;;6.60;3.60;;;;;;;;;;5074429;28;20776;-71
2021/09/29 10:00:02;;;;;;;7.50;3.60;;;;;;;;;;5074824;28;20534;-71
2021/09/29 10:02:38;;;;;;;3.97;3.13;;;;;;;;;;5074836;28;20446;-71
2021/09/29 10:05:05;;;;;;;4.10;3.73;;;;;;;;;;5074617;28;20828;-70
2021/09/29 10:07:33;;;;;;;9.83;3.30;;;;;;;;;;5074039;28;20446;-71
2021/09/29 10:10:03;;;;;;;5.77;3.57;;;;;;;;;;5074297;28;20447;-71
2021/09/29 10:12:37;;;;;;;5.53;3.20;;;;;;;;;;5074299;28;20446;-72
2021/09/29 10:15:29;;;;;;;3.50;3.20;;;;;;;;;;5074582;28;20521;-71
2021/09/29 10:23:52;;;;;;;6.10;3.70;;;;;;;;;;5037554;28;20426;-71
2021/09/29 10:26:22;;;;;;;8.37;3.70;;;;;;;;;;5074360;28;20468;-70
2021/09/29 10:28:49;;;;;;;7.30;3.50;;;;;;;;;;5073871;28;20866;-70
2021/09/29 10:31:37;;;;;;;5.17;3.27;;;;;;;;;;5073711;28;20793;-70
2021/09/29 10:34:06;;;;;;;5.80;4.13;;;;;;;;;;5073475;28;20515;-70
2021/09/29 10:42:23;;;;;;;5.43;3.60;;;;;;;;;;5073523;28;20878;-71
2021/09/29 10:47:55;;;;;;;8.30;3.80;;;;;;;;;;5048007;28;20422;-71
2021/09/29 10:50:55;;;;;;;10.87;4.90;;;;;;;;;;5074082;28;20425;-70
2021/09/29 11:05:00;;;;;;;6.43;4.03;;;;;;;;;;5073535;28;20442;-68
2021/09/29 11:07:49;;;;;;;4.90;4.50;;;;;;;;;;5073171;28;20475;-67
2021/09/29 11:29:40;;;;;;;8.00;4.33;;;;;;;;;;5073404;28;20552;-67
2021/09/29 11:32:22;;;;;;;4.30;3.83;;;;;;;;;;5073222;28;20417;-67
2021/09/29 11:34:50;;;;;;;4.67;4.27;;;;;;;;;;5073722;28;20776;-67
2021/09/29 11:48:31;;;;;;;4.00;3.70;;;;;;;;;;5072954;28;20432;-67
2021/09/29 12:08:32;;;;;;;6.10;3.13;;;;;;;;;;5076439;28;20961;-67
2021/09/29 12:11:05;;;;;;;3.20;2.90;;;;;;;;;;5076207;28;20506;-67
2021/09/29 12:13:43;;;;;;;3.80;3.50;;;;;;;;;;5076444;28;20431;-68
2021/09/29 12:16:10;;;;;;;3.63;3.33;;;;;;;;;;5076470;28;20432;-67
2021/09/29 12:18:38;;;;;;;5.70;2.83;;;;;;;;;;5076423;28;20452;-67
2021/09/29 12:21:05;;;;;;;3.43;3.13;;;;;;;;;;5076501;28;20488;-68
2021/09/29 12:23:33;;;;;;;3.23;2.93;;;;;;;;;;5076343;28;20502;-68
2021/09/29 12:26:26;;;;;;;3.63;3.30;;;;;;;;;;5076302;28;20529;-68
2021/09/29 12:29:10;;;;;;;3.47;3.17;;;;;;;;;;5076136;28;20579;-67
2021/09/29 12:31:57;;;;;;;2.60;2.40;;;;;;;;;;5076061;28;20925;-67
2021/09/29 12:34:29;;;;;;;3.83;2.97;;;;;;;;;;5075851;28;20429;-67
2021/09/29 12:36:56;;;;;;;3.10;2.90;;;;;;;;;;5076235;28;20447;-67
2021/09/29 12:39:25;;;;;;;4.53;4.17;;;;;;;;;;5075937;28;20567;-67
2021/09/29 12:41:56;;;;;;;6.40;3.60;;;;;;;;;;5076002;28;20486;-67
2021/09/29 12:44:23;;;;;;;3.93;3.60;;;;;;;;;;5076022;28;20485;-68
2021/09/29 12:47:03;;;;;;;3.73;3.33;;;;;;;;;;5076254;28;20487;-72
2021/09/29 12:49:30;;;;;;;3.63;3.33;;;;;;;;;;5075991;28;20421;-70
2021/09/29 12:52:01;;;;;;;3.53;3.33;;;;;;;;;;5075880;28;20945;-69
2021/09/29 12:54:28;;;;;;;3.20;2.90;;;;;;;;;;5075569;28;20429;-69
2021/09/29 12:56:57;;;;;;;3.33;2.67;;;;;;;;;;5075760;28;20464;-69
2021/09/29 12:59:30;;;;;;;2.10;2.00;;;;;;;;;;5075722;28;20602;-70
2021/09/29 13:01:58;;;;;;;2.80;2.20;;;;;;;;;;5075328;28;20524;-70
2021/09/29 13:04:25;;;;;;;3.07;2.87;;;;;;;;;;5075515;28;20513;-70
2021/09/29 13:06:52;;;;;;;12.57;2.80;;;;;;;;;;5074727;28;20472;-70
2021/09/29 13:09:20;;;;;;;2.80;2.50;;;;;;;;;;5074865;28;20483;-71
2021/09/29 13:11:47;;;;;;;2.70;2.50;;;;;;;;;;5074835;28;20999;-70
2021/09/29 13:14:15;;;;;;;3.07;2.87;;;;;;;;;;5074976;28;20803;-70
2021/09/29 13:16:43;;;;;;;3.53;2.37;;;;;;;;;;5075367;28;20446;-69
2021/09/29 13:19:13;;;;;;;2.60;2.40;;;;;;;;;;5074563;28;20451;-69
2021/09/29 13:21:48;;;;;;;3.13;2.17;;;;;;;;;;5074887;28;20432;-69
2021/09/29 13:24:19;;;;;;;2.00;1.90;;;;;;;;;;5074874;28;20436;-69
2021/09/29 13:27:03;;;;;;;1.90;1.80;;;;;;;;;;5074706;28;20571;-68
2021/09/29 13:35:14;;;;;;;2.17;2.07;;;;;;;;;;5075257;28;20431;-68
2021/09/29 13:37:41;;;;;;;2.13;1.80;;;;;;;;;;5074562;28;20433;-68
2021/09/29 13:40:09;;;;;;;3.10;2.07;;;;;;;;;;5074655;28;20446;-69
2021/09/29 13:42:36;;;;;;;4.27;2.10;;;;;;;;;;5074858;28;20519;-68
2021/09/29 13:45:06;;;;;;;3.20;2.17;;;;;;;;;;5074220;28;20527;-69
2021/09/29 13:47:34;;;;;;;2.17;2.07;;;;;;;;;;5074594;28;20437;-69
2021/09/29 13:50:01;;;;;;;1.80;1.70;;;;;;;;;;5074206;28;20440;-69
2021/09/29 13:52:28;;;;;;;1.60;1.50;;;;;;;;;;5074199;28;20440;-70
2021/09/29 13:54:58;;;;;;;2.10;1.30;;;;;;;;;;5074686;28;20443;-70
2021/09/29 13:57:27;;;;;;;2.50;1.83;;;;;;;;;;5074900;28;20816;-70
2021/09/29 14:00:03;;;;;;;1.93;1.70;;;;;;;;;;5074323;28;20457;-69
2021/09/29 14:02:53;;;;;;;2.00;1.80;;;;;;;;;;5074880;28;20934;-69
2021/09/29 14:30:09;;;;;;;2.40;2.20;;;;;;;;;;5094130;28;20520;-70
2021/09/29 14:32:49;;;;;;;2.47;2.37;;;;;;;;;;5093822;28;20431;-70
2021/09/29 14:35:18;;;;;;;3.20;2.90;;;;;;;;;;5093590;28;20438;-69
2021/09/29 14:37:45;;;;;;;2.90;2.70;;;;;;;;;;5094185;28;20465;-70
2021/09/29 14:40:13;;;;;;;6.90;3.23;;;;;;;;;;5093546;28;20444;-70
2021/09/29 14:42:40;;;;;;;2.60;2.40;;;;;;;;;;5093870;28;20441;-70
2021/09/29 14:45:08;;;;;;;2.77;2.10;;;;;;;;;;5093507;28;20440;-71
2021/09/29 14:47:35;;;;;;;3.03;2.50;;;;;;;;;;5093445;28;20471;-71
2021/09/29 14:50:03;;;;;;;6.20;2.50;;;;;;;;;;5093560;28;20514;-70
2021/09/29 14:52:32;;;;;;;3.73;2.50;;;;;;;;;;5093348;28;21031;-70
2021/09/29 14:55:01;;;;;;;2.80;2.60;;;;;;;;;;5093810;28;20471;-71
2021/09/29 14:57:28;;;;;;;3.20;2.87;;;;;;;;;;5093727;28;20485;-70
2021/09/29 14:59:55;;;;;;;2.77;2.57;;;;;;;;;;5094052;28;20448;-70
2021/09/29 15:02:22;;;;;;;3.40;3.10;;;;;;;;;;5094311;28;20445;-70
2021/09/29 15:04:49;;;;;;;2.90;2.70;;;;;;;;;;5093704;28;20443;-70
2021/09/29 15:07:17;;;;;;;2.97;2.67;;;;;;;;;;5093125;28;20479;-69
2021/09/29 15:09:45;;;;;;;3.07;2.77;;;;;;;;;;5093456;28;20431;-69
2021/09/29 15:12:12;;;;;;;3.70;3.40;;;;;;;;;;5093106;28;20500;-70
2021/09/29 15:14:53;;;;;;;3.17;2.87;;;;;;;;;;5093584;28;20496;-70
2021/09/29 15:17:30;;;;;;;3.90;3.50;;;;;;;;;;5094412;28;20841;-69
2021/09/29 15:20:02;;;;;;;3.10;2.67;;;;;;;;;;5093300;28;20442;-70
2021/09/29 15:22:50;;;;;;;5.07;3.17;;;;;;;;;;5093480;28;20486;-70
2021/09/29 15:31:02;;;;;;;4.00;2.80;;;;;;;;;;5097141;28;20411;-70
2021/09/29 15:47:18;;;;;;;4.70;2.73;;;;;;;;;;5097054;28;20971;-71
2021/09/29 15:49:56;;;;;;;2.50;2.30;;;;;;;;;;5097322;28;20443;-71
2021/09/29 15:52:37;;;;;;;4.13;2.20;;;;;;;;;;5097319;28;20493;-71
2021/09/29 15:55:12;;;;;;;2.93;2.37;;;;;;;;;;5097546;28;20427;-70
2021/09/29 16:03:12;;;;;;;5.17;2.60;;;;;;;;;;5097183;28;20484;-70
2021/09/29 16:05:47;;;;;;;2.40;2.20;;;;;;;;;;5096820;28;20925;-71
2021/09/29 16:08:25;;;;;;;2.97;2.30;;;;;;;;;;5097645;28;20435;-70
2021/09/29 16:11:19;;;;;;;3.90;2.10;;;;;;;;;;5096495;28;20435;-70
2021/09/29 16:14:06;;;;;;;2.50;2.23;;;;;;;;;;5096982;28;20467;-70
2021/09/29 16:16:56;;;;;;;2.20;1.60;;;;;;;;;;5097345;28;20826;-71
2021/09/29 16:19:47;;;;;;;3.27;1.77;;;;;;;;;;5096725;28;20433;-71
2021/09/29 16:30:36;;;;;;;2.92;1.80;;;;;;;;;;5075883;28;20529;-68
2021/09/29 16:33:15;;;;;;;4.20;1.58;;;;;;;;;;5076386;28;20186;-67
2021/09/29 16:35:49;;;;;;;3.58;2.10;;;;;;;;;;5075827;28;20190;-68
2021/09/29 16:38:17;;;;;;;2.03;1.52;;;;;;;;;;5076523;28;20180;-68
2021/09/29 16:40:44;;;;;;;2.58;1.67;;;;;;;;;;5075853;28;20198;-68
2021/09/29 16:43:18;;;;;;;2.58;1.92;;;;;;;;;;5075816;28;20285;-67
2021/09/29 16:45:49;;;;;;;1.60;1.50;;;;;;;;;;5076096;28;20634;-67
2021/09/29 16:48:18;;;;;;;8.27;2.03;;;;;;;;;;5075207;28;20432;-67
2021/09/29 16:51:00;;;;;;;2.33;1.90;;;;;;;;;;5075041;28;20651;-68
2021/09/29 16:53:30;;;;;;;1.83;1.63;;;;;;;;;;5076095;28;20251;-67
2021/09/29 16:55:58;;;;;;;2.33;2.13;;;;;;;;;;5075481;28;20199;-67
2021/09/29 16:58:32;;;;;;;3.60;2.23;;;;;;;;;;5075581;28;20283;-67
2021/09/29 17:01:07;;;;;;;5.15;2.05;;;;;;;;;;5076184;28;20432;-67
2021/09/29 17:03:34;;;;;;;4.40;3.50;;;;;;;;;;5075834;28;20616;-67
2021/09/29 17:06:01;;;;;;;2.45;2.25;;;;;;;;;;5075686;28;20895;-67
2021/09/29 17:08:29;;;;;;;2.50;2.30;;;;;;;;;;5075114;28;20198;-67
2021/09/29 17:10:56;;;;;;;2.47;2.27;;;;;;;;;;5075176;28;20454;-67
2021/09/29 17:13:25;;;;;;;2.50;2.03;;;;;;;;;;5075400;28;20448;-67
2021/09/29 17:15:56;;;;;;;3.83;2.50;;;;;;;;;;5075267;28;20486;-67
2021/09/29 17:18:25;;;;;;;3.58;2.50;;;;;;;;;;5075184;28;20785;-67
2021/09/29 17:20:52;;;;;;;2.97;2.67;;;;;;;;;;5074981;28;20228;-67
2021/09/29 17:23:20;;;;;;;6.88;1.90;;;;;;;;;;5074872;28;20234;-67
2021/09/29 17:25:48;;;;;;;4.75;2.30;;;;;;;;;;5074930;28;20193;-66
2021/09/29 17:28:17;;;;;;;3.72;2.65;;;;;;;;;;5076205;28;20208;-66
2021/09/29 17:30:48;;;;;;;7.75;3.13;;;;;;;;;;5095056;28;20663;-66
2021/09/29 17:33:25;;;;;;;3.08;2.55;;;;;;;;;;5095136;28;20279;-67